createdAt,value
2018-04-13T00:00:43.332Z,64.87
2018-04-13T00:01:46.662Z,75.20
2018-04-13T00:02:50.025Z,71.60
2018-04-13T00:03:53.392Z,69.23
2018-04-13T00:04:56.723Z,68.97
2018-04-13T00:06:00.128Z,65.50
2018-04-13T00:07:03.864Z,62.33
2018-04-13T00:08:07.230Z,57.20
2018-04-13T00:09:10.663Z,60.87
2018-04-13T00:10:13.996Z,62.57
2018-04-13T00:11:17.334Z,67.90
2018-04-13T00:12:20.725Z,63.73
2018-04-13T00:13:24.197Z,59.40
2018-04-13T00:14:28.321Z,63.00
2018-04-13T00:15:31.685Z,66.60
2018-04-13T00:16:35.759Z,66.63
2018-04-13T00:17:39.096Z,63.87
2018-04-13T00:18:42.463Z,78.00
2018-04-13T00:19:45.846Z,68.63
2018-04-13T00:20:49.221Z,64.57
2018-04-13T00:21:52.717Z,72.87
2018-04-13T00:22:56.134Z,66.50
2018-04-13T00:23:59.496Z,84.50
2018-04-13T00:25:02.896Z,69.00
2018-04-13T00:26:06.301Z,80.47
2018-04-13T00:27:09.640Z,76.10
2018-04-13T00:28:13.021Z,70.03
2018-04-13T00:29:17.159Z,66.47
2018-04-13T00:30:20.510Z,65.07
2018-04-13T00:31:24.650Z,76.63
2018-04-13T00:32:28.722Z,75.50
2018-04-13T00:33:32.890Z,62.27
2018-04-13T00:34:37.068Z,71.47
2018-04-13T00:35:40.451Z,58.07
2018-04-13T00:36:43.776Z,73.93
2018-04-13T00:37:47.133Z,75.13
2018-04-13T00:38:50.520Z,65.33
2018-04-13T00:39:53.919Z,75.90
2018-04-13T00:40:57.227Z,69.70
2018-04-13T00:42:00.552Z,66.87
2018-04-13T00:43:03.948Z,65.03
2018-04-13T00:44:07.309Z,76.63
2018-04-13T00:45:10.639Z,59.20
2018-04-13T00:46:14.014Z,69.93
2018-04-13T00:47:17.875Z,62.53
2018-04-13T00:48:21.470Z,80.53
2018-04-13T00:49:25.604Z,67.63
2018-04-13T00:50:28.950Z,77.87
2018-04-13T00:51:33.060Z,65.00
2018-04-13T00:52:37.160Z,64.07
2018-04-13T00:53:41.242Z,81.70
2018-04-13T00:54:44.580Z,65.83
2018-04-13T00:55:48.266Z,69.27
2018-04-13T00:56:51.569Z,69.00
2018-04-13T00:57:54.905Z,73.97
2018-04-13T00:58:58.974Z,71.57
2018-04-13T01:00:02.287Z,67.40
2018-04-13T01:01:06.416Z,66.73
2018-04-13T01:02:09.750Z,59.83
2018-04-13T01:03:13.891Z,66.63
2018-04-13T01:04:17.197Z,73.43
2018-04-13T01:05:20.505Z,68.93
2018-04-13T01:06:24.631Z,71.20
2018-04-13T01:07:28.067Z,80.10
2018-04-13T01:08:32.099Z,72.20
2018-04-13T01:09:35.390Z,68.87
2018-04-13T01:10:38.707Z,80.30
2018-04-13T01:11:42.045Z,74.93
2018-04-13T01:12:45.362Z,65.00
2018-04-13T01:13:48.690Z,65.27
2018-04-13T01:14:52.013Z,77.07
2018-04-13T01:15:56.141Z,72.03
2018-04-13T01:16:59.489Z,72.97
2018-04-13T01:18:02.826Z,63.67
2018-04-13T01:19:06.894Z,69.10
2018-04-13T01:20:10.178Z,65.57
2018-04-13T01:21:13.570Z,74.33
2018-04-13T01:22:16.949Z,64.30
2018-04-13T01:23:20.318Z,66.47
2018-04-13T01:24:23.663Z,66.57
2018-04-13T01:25:26.983Z,56.57
2018-04-13T01:26:30.295Z,58.67
2018-04-13T01:27:34.467Z,56.50
2018-04-13T01:28:37.777Z,58.87
2018-04-13T01:29:41.136Z,56.30
2018-04-13T01:30:44.445Z,50.23
2018-04-13T01:31:47.798Z,54.13
2018-04-13T01:32:51.144Z,52.57
2018-04-13T01:33:55.229Z,59.93
2018-04-13T01:34:58.546Z,53.53
2018-04-13T01:36:01.871Z,54.27
2018-04-13T01:37:05.172Z,57.27
2018-04-13T01:38:08.549Z,52.90
2018-04-13T01:39:11.921Z,57.90
2018-04-13T01:40:15.228Z,45.93
2018-04-13T01:41:18.547Z,41.93
2018-04-13T01:42:21.895Z,44.53
2018-04-13T01:43:25.279Z,50.50
2018-04-13T01:44:28.642Z,46.53
2018-04-13T01:45:31.934Z,52.40
2018-04-13T01:46:35.231Z,48.63
2018-04-13T01:47:38.566Z,37.77
2018-04-13T01:48:41.880Z,48.40
2018-04-13T01:49:45.183Z,41.67
2018-04-13T01:50:48.564Z,44.37
2018-04-13T01:51:51.866Z,38.67
2018-04-13T01:52:55.190Z,35.17
2018-04-13T01:53:58.752Z,47.33
2018-04-13T01:55:02.082Z,46.07
2018-04-13T01:56:05.425Z,41.57
2018-04-13T01:57:08.748Z,43.73
2018-04-13T01:58:12.092Z,43.50
2018-04-13T01:59:15.424Z,39.97
2018-04-13T02:00:18.735Z,41.97
2018-04-13T02:01:22.110Z,47.23
2018-04-13T02:02:25.406Z,48.47
2018-04-13T02:03:28.704Z,47.17
2018-04-13T02:04:32.051Z,43.43
2018-04-13T02:05:35.394Z,43.33
2018-04-13T02:06:40.192Z,44.20
2018-04-13T02:07:43.535Z,41.97
2018-04-13T02:08:46.880Z,39.60
2018-04-13T02:09:51.028Z,49.63
2018-04-13T02:10:54.479Z,39.00
2018-04-13T02:11:58.581Z,43.70
2018-04-13T02:13:02.648Z,41.77
2018-04-13T02:14:05.969Z,38.70
2018-04-13T02:15:09.327Z,40.30
2018-04-13T02:16:12.688Z,43.77
2018-04-13T02:17:16.089Z,45.67
2018-04-13T02:18:19.434Z,39.97
2018-04-13T02:19:22.802Z,47.83
2018-04-13T02:20:26.126Z,36.50
2018-04-13T02:21:29.431Z,40.23
2018-04-13T02:22:32.736Z,37.33
2018-04-13T02:23:36.811Z,37.97
2018-04-13T02:24:40.110Z,40.50
2018-04-13T02:25:43.459Z,42.80
2018-04-13T02:26:47.306Z,40.97
2018-04-13T02:27:50.640Z,42.93
2018-04-13T02:28:54.250Z,45.67
2018-04-13T02:29:57.570Z,36.00
2018-04-13T02:31:01.926Z,37.47
2018-04-13T02:32:05.238Z,44.20
2018-04-13T02:33:09.371Z,35.83
2018-04-13T02:34:13.497Z,42.03
2018-04-13T02:35:17.096Z,47.77
2018-04-13T02:36:20.466Z,42.10
2018-04-13T02:37:24.561Z,46.17
2018-04-13T02:38:28.644Z,40.27
2018-04-13T02:39:32.717Z,42.70
2018-04-13T02:40:36.829Z,59.33
2018-04-13T02:41:40.147Z,40.70
2018-04-13T02:42:44.287Z,42.33
2018-04-13T02:43:47.648Z,36.23
2018-04-13T02:44:51.061Z,41.23
2018-04-13T02:45:54.409Z,40.53
2018-04-13T02:46:58.085Z,33.80
2018-04-13T02:48:01.488Z,38.50
2018-04-13T02:49:04.846Z,37.60
2018-04-13T02:50:08.162Z,41.60
2018-04-13T02:51:12.264Z,39.10
2018-04-13T02:52:15.630Z,36.67
2018-04-13T02:53:19.873Z,42.10
2018-04-13T02:54:23.192Z,38.33
2018-04-13T02:55:26.519Z,36.23
2018-04-13T02:56:30.224Z,34.03
2018-04-13T02:57:33.602Z,40.20
2018-04-13T02:58:36.906Z,39.00
2018-04-13T02:59:40.272Z,33.97
2018-04-13T03:00:43.584Z,42.10
2018-04-13T03:01:46.902Z,42.73
2018-04-13T03:02:50.246Z,33.97
2018-04-13T03:03:53.543Z,29.83
2018-04-13T03:06:07.229Z,36.37
2018-04-13T03:07:11.307Z,49.10
2018-04-13T03:08:14.629Z,37.40
2018-04-13T03:09:17.993Z,38.60
2018-04-13T03:10:21.359Z,45.00
2018-04-13T03:11:24.692Z,44.27
2018-04-13T03:12:28.754Z,49.40
2018-04-13T03:13:32.157Z,45.83
2018-04-13T03:14:35.508Z,36.53
2018-04-13T03:15:39.618Z,46.33
2018-04-13T03:16:42.981Z,42.77
2018-04-13T03:17:46.314Z,46.73
2018-04-13T03:18:49.761Z,48.53
2018-04-13T03:19:53.046Z,45.67
2018-04-13T03:20:57.125Z,44.03
2018-04-13T03:22:00.438Z,48.53
2018-04-13T03:23:03.746Z,44.83
2018-04-13T03:24:07.965Z,45.50
2018-04-13T03:25:11.326Z,45.20
2018-04-13T03:26:14.679Z,43.20
2018-04-13T03:27:18.024Z,46.47
2018-04-13T03:28:21.469Z,41.03
2018-04-13T03:29:24.904Z,45.30
2018-04-13T03:30:28.288Z,46.67
2018-04-13T03:31:32.376Z,46.27
2018-04-13T03:32:35.705Z,44.53
2018-04-13T03:33:39.039Z,46.87
2018-04-13T03:34:42.408Z,49.83
2018-04-13T03:35:45.710Z,43.73
2018-04-13T03:36:49.049Z,44.50
2018-04-13T03:37:52.413Z,47.77
2018-04-13T03:38:56.472Z,62.40
2018-04-13T03:39:59.826Z,49.40
2018-04-13T03:41:03.132Z,48.33
2018-04-13T03:42:06.426Z,46.33
2018-04-13T03:43:09.717Z,57.97
2018-04-13T03:44:13.024Z,54.50
2018-04-13T03:45:16.460Z,51.00
2018-04-13T03:46:19.773Z,41.10
2018-04-13T03:47:23.132Z,44.80
2018-04-13T03:48:27.201Z,49.60
2018-04-13T03:49:30.532Z,46.60
2018-04-13T03:50:34.041Z,53.87
2018-04-13T03:51:38.221Z,53.07
2018-04-13T03:52:41.569Z,46.77
2018-04-13T03:53:44.895Z,46.93
2018-04-13T03:54:48.976Z,54.00
2018-04-13T03:55:53.210Z,48.00
2018-04-13T03:56:56.591Z,57.07
2018-04-13T03:57:59.957Z,51.20
2018-04-13T03:59:03.243Z,55.47
2018-04-13T04:00:06.661Z,49.57
2018-04-13T04:01:10.006Z,48.83
2018-04-13T04:02:13.358Z,49.93
2018-04-13T04:03:16.633Z,51.23
2018-04-13T04:04:20.014Z,49.10
2018-04-13T04:05:23.377Z,58.13
2018-04-13T04:06:26.780Z,48.47
2018-04-13T04:07:30.078Z,57.33
2018-04-13T04:08:33.465Z,54.30
2018-04-13T04:09:37.553Z,50.83
2018-04-13T04:10:41.532Z,49.37
2018-04-13T04:11:44.906Z,48.43
2018-04-13T04:12:48.240Z,41.77
2018-04-13T04:13:51.602Z,48.10
2018-04-13T04:14:54.965Z,38.50
2018-04-13T04:15:58.350Z,44.63
2018-04-13T04:17:01.742Z,46.07
2018-04-13T04:18:05.050Z,58.23
2018-04-13T04:19:08.370Z,46.83
2018-04-13T04:20:29.310Z,48.50
2018-04-13T04:21:50.219Z,39.13
2018-04-13T04:23:11.079Z,43.43
2018-04-13T04:24:31.914Z,45.00
2018-04-13T04:27:18.554Z,43.50
2018-04-13T04:28:21.926Z,46.77
2018-04-13T04:29:25.257Z,41.97
2018-04-13T04:30:28.622Z,43.27
2018-04-13T04:32:42.631Z,53.00
2018-04-13T04:33:46.003Z,48.03
2018-04-13T04:34:49.297Z,52.37
2018-04-13T04:35:52.617Z,39.80
2018-04-13T04:36:55.926Z,42.47
2018-04-13T04:37:59.251Z,55.90
2018-04-13T04:39:02.601Z,47.03
2018-04-13T04:40:05.949Z,43.63
2018-04-13T04:41:09.290Z,45.37
2018-04-13T04:42:12.900Z,53.33
2018-04-13T04:43:16.226Z,44.57
2018-04-13T04:44:19.605Z,43.63
2018-04-13T04:45:22.921Z,46.83
2018-04-13T04:46:26.891Z,41.43
2018-04-13T04:47:30.227Z,46.73
2018-04-13T04:48:33.532Z,49.50
2018-04-13T04:49:36.884Z,60.40
2018-04-13T04:50:40.212Z,46.40
2018-04-13T04:51:43.709Z,57.30
2018-04-13T04:52:47.781Z,54.30
2018-04-13T04:53:51.137Z,49.47
2018-04-13T04:54:54.461Z,61.27
2018-04-13T04:55:58.337Z,53.70
2018-04-13T04:57:01.696Z,44.53
2018-04-13T04:58:05.011Z,42.77
2018-04-13T04:59:08.346Z,51.07
2018-04-13T05:00:11.758Z,44.33
2018-04-13T05:01:15.366Z,48.70
2018-04-13T05:02:19.473Z,56.17
2018-04-13T05:03:22.853Z,48.50
2018-04-13T05:04:26.204Z,57.33
2018-04-13T05:05:30.620Z,56.50
2018-04-13T05:06:34.233Z,55.17
2018-04-13T05:07:37.545Z,53.60
2018-04-13T05:08:41.644Z,70.00
2018-04-13T05:09:45.775Z,57.77
2018-04-13T05:10:49.111Z,58.63
2018-04-13T05:11:54.770Z,56.77
2018-04-13T05:12:58.998Z,67.30
2018-04-13T05:14:02.311Z,58.60
2018-04-13T05:15:07.884Z,65.90
2018-04-13T05:16:12.115Z,49.50
2018-04-13T05:17:16.253Z,57.23
2018-04-13T05:18:19.644Z,61.23
2018-04-13T05:19:23.040Z,53.50
2018-04-13T05:20:26.461Z,53.20
2018-04-13T05:21:30.591Z,54.13
2018-04-13T05:22:34.042Z,66.63
2018-04-13T05:23:37.519Z,65.63
2018-04-13T05:24:41.093Z,60.53
2018-04-13T05:25:44.414Z,60.10
2018-04-13T05:26:47.799Z,63.13
2018-04-13T05:27:51.234Z,61.17
2018-04-13T05:28:54.593Z,66.60
2018-04-13T05:29:58.772Z,54.20
2018-04-13T05:31:02.183Z,61.87
2018-04-13T05:32:06.336Z,74.13
2018-04-13T05:33:09.721Z,64.77
2018-04-13T05:34:13.186Z,68.77
2018-04-13T05:36:31.503Z,70.33
2018-04-13T05:37:36.045Z,74.57
2018-04-13T05:38:39.408Z,64.67
2018-04-13T05:39:42.748Z,64.97
2018-04-13T05:40:46.069Z,78.00
2018-04-13T05:41:49.410Z,72.50
2018-04-13T05:42:52.781Z,68.70
2018-04-13T05:43:56.135Z,71.20
2018-04-13T05:44:59.441Z,72.30
2018-04-13T05:46:02.876Z,95.53
2018-04-13T05:47:06.327Z,72.70
2018-04-13T05:48:09.817Z,75.90
2018-04-13T05:49:13.158Z,75.30
2018-04-13T05:50:16.617Z,86.53
2018-04-13T05:51:20.895Z,80.40
2018-04-13T05:52:24.284Z,87.87
2018-04-13T05:53:27.674Z,86.20
2018-04-13T05:54:32.655Z,96.67
2018-04-13T05:55:36.331Z,89.37
2018-04-13T05:56:39.726Z,90.90
2018-04-13T05:57:43.185Z,100.33
2018-04-13T05:58:46.576Z,90.17
2018-04-13T05:59:49.925Z,94.63
2018-04-13T06:00:54.041Z,110.43
2018-04-13T06:01:57.342Z,107.97
2018-04-13T06:03:00.681Z,106.87
2018-04-13T06:04:04.012Z,108.30
2018-04-13T06:05:08.113Z,103.00
2018-04-13T06:06:11.418Z,120.17
2018-04-13T06:07:14.785Z,117.47
2018-04-13T06:08:18.111Z,115.37
2018-04-13T06:09:21.480Z,104.97
2018-04-13T06:10:25.564Z,127.90
2018-04-13T06:11:28.971Z,119.07
2018-04-13T06:12:32.314Z,121.67
2018-04-13T06:13:35.648Z,125.40
2018-04-13T06:14:39.048Z,99.40
2018-04-13T06:15:42.384Z,123.50
2018-04-13T06:16:46.070Z,114.67
2018-04-13T06:17:49.400Z,115.70
2018-04-13T06:18:53.593Z,141.10
2018-04-13T06:19:57.061Z,120.10
2018-04-13T06:21:00.355Z,117.67
2018-04-13T06:22:03.880Z,122.17
2018-04-13T06:23:07.210Z,107.50
2018-04-13T06:24:10.539Z,101.67
2018-04-13T06:25:14.658Z,117.83
2018-04-13T06:26:18.038Z,118.00
2018-04-13T06:27:21.357Z,120.90
2018-04-13T06:28:24.679Z,128.10
2018-04-13T06:29:27.990Z,112.60
2018-04-13T06:30:31.365Z,114.60
2018-04-13T06:31:34.694Z,141.33
2018-04-13T06:32:38.023Z,108.63
2018-04-13T06:33:41.378Z,126.67
2018-04-13T06:34:44.707Z,109.43
2018-04-13T06:35:48.434Z,120.33
2018-04-13T06:36:55.044Z,112.33
2018-04-13T06:37:55.094Z,125.80
2018-04-13T06:38:58.525Z,120.43
2018-04-13T06:40:01.879Z,116.83
2018-04-13T06:41:06.178Z,120.63
2018-04-13T06:42:09.592Z,107.33
2018-04-13T06:43:12.956Z,120.40
2018-04-13T06:44:16.273Z,110.87
2018-04-13T06:45:19.599Z,123.73
2018-04-13T06:46:22.961Z,120.33
2018-04-13T06:47:26.330Z,136.63
2018-04-13T06:48:29.619Z,110.53
2018-04-13T06:49:32.988Z,122.80
2018-04-13T06:50:36.388Z,120.67
2018-04-13T06:51:39.844Z,113.20
2018-04-13T06:52:43.216Z,123.70
2018-04-13T06:53:46.516Z,111.50
2018-04-13T06:54:49.829Z,124.10
2018-04-13T06:55:53.182Z,134.03
2018-04-13T06:56:56.593Z,109.90
2018-04-13T06:57:59.930Z,107.63
2018-04-13T06:59:03.245Z,108.30
2018-04-13T07:00:06.644Z,120.57
2018-04-13T07:01:09.965Z,133.30
2018-04-13T07:02:13.306Z,121.97
2018-04-13T07:03:17.339Z,119.13
2018-04-13T07:04:20.680Z,109.37
2018-04-13T07:05:24.872Z,104.83
2018-04-13T07:06:29.029Z,126.67
2018-04-13T07:07:32.371Z,106.43
2018-04-13T07:08:35.766Z,115.90
2018-04-13T07:09:39.939Z,126.63
2018-04-13T07:10:43.388Z,123.33
2018-04-13T07:11:46.798Z,103.93
2018-04-13T07:12:50.539Z,125.23
2018-04-13T07:13:53.895Z,124.10
2018-04-13T07:14:57.273Z,128.80
2018-04-13T07:16:01.357Z,116.03
2018-04-13T07:17:04.695Z,129.77
2018-04-13T07:18:08.056Z,116.70
2018-04-13T07:19:11.418Z,107.07
2018-04-13T07:20:14.792Z,121.50
2018-04-13T07:21:18.104Z,120.60
2018-04-13T07:22:22.164Z,135.23
2018-04-13T07:23:25.556Z,114.13
2018-04-13T07:24:28.903Z,118.80
2018-04-13T07:25:32.254Z,122.00
2018-04-13T07:26:36.345Z,141.40
2018-04-13T07:27:39.659Z,117.57
2018-04-13T07:28:43.141Z,117.67
2018-04-13T07:29:46.462Z,131.13
2018-04-13T07:30:50.527Z,131.57
2018-04-13T07:31:53.964Z,128.53
2018-04-13T07:32:57.292Z,121.63
2018-04-13T07:34:01.378Z,127.33
2018-04-13T07:35:04.722Z,123.47
2018-04-13T07:36:08.099Z,129.23
2018-04-13T07:37:12.001Z,140.20
2018-04-13T07:38:15.362Z,126.63
2018-04-13T07:39:18.740Z,132.57
2018-04-13T07:40:22.822Z,148.20
2018-04-13T07:42:25.208Z,124.50
2018-04-13T07:43:28.501Z,127.20
2018-04-13T07:44:31.956Z,130.17
2018-04-13T07:45:35.298Z,120.20
2018-04-13T07:46:38.657Z,123.40
2018-04-13T07:47:41.994Z,121.17
2018-04-13T07:48:45.308Z,122.20
2018-04-13T07:49:48.650Z,121.50
2018-04-13T07:50:52.011Z,132.73
2018-04-13T07:51:55.516Z,118.93
2018-04-13T07:52:58.674Z,123.63
2018-04-13T07:54:02.007Z,125.23
2018-04-13T07:55:05.323Z,153.00
2018-04-13T07:56:09.397Z,131.27
2018-04-13T07:57:12.707Z,125.53
2018-04-13T07:58:16.017Z,132.87
2018-04-13T07:59:19.343Z,123.83
2018-04-13T08:00:22.677Z,131.73
2018-04-13T08:01:25.984Z,122.83
2018-04-13T08:02:29.306Z,121.40
2018-04-13T08:03:32.632Z,127.17
2018-04-13T08:04:36.142Z,121.60
2018-04-13T08:05:39.502Z,138.53
2018-04-13T08:06:42.863Z,144.87
2018-04-13T08:07:46.967Z,126.83
2018-04-13T08:08:50.325Z,133.63
2018-04-13T08:09:53.653Z,131.77
2018-04-13T08:10:57.765Z,126.30
2018-04-13T08:12:01.826Z,159.73
2018-04-13T08:13:05.151Z,128.60
2018-04-13T08:14:08.463Z,121.50
2018-04-13T08:15:11.811Z,136.33
2018-04-13T08:16:15.227Z,122.90
2018-04-13T08:17:18.707Z,142.43
2018-04-13T08:18:22.518Z,138.60
2018-04-13T08:19:26.067Z,137.80
2018-04-13T08:20:30.897Z,129.13
2018-04-13T08:21:34.213Z,135.30
2018-04-13T08:22:38.421Z,117.73
2018-04-13T08:23:41.790Z,142.27
2018-04-13T08:24:45.096Z,137.60
2018-04-13T08:25:48.905Z,137.80
2018-04-13T08:26:52.240Z,126.63
2018-04-13T08:27:55.551Z,130.70
2018-04-13T08:28:58.871Z,130.13
2018-04-13T08:30:02.197Z,135.90
2018-04-13T08:31:05.505Z,126.97
2018-04-13T08:32:08.838Z,140.77
2018-04-13T08:33:12.180Z,127.90
2018-04-13T08:34:15.508Z,141.97
2018-04-13T08:35:19.609Z,148.60
2018-04-13T08:36:22.953Z,135.13
2018-04-13T08:37:26.308Z,139.70
2018-04-13T08:38:29.614Z,128.10
2018-04-13T08:39:32.918Z,121.37
2018-04-13T08:40:36.297Z,133.43
2018-04-13T08:41:39.640Z,146.60
2018-04-13T08:42:42.975Z,134.53
2018-04-13T08:43:46.266Z,114.07
2018-04-13T08:44:49.581Z,131.43
2018-04-13T08:45:53.658Z,128.00
2018-04-13T08:46:56.971Z,141.00
2018-04-13T08:48:00.320Z,133.07
2018-04-13T08:49:03.791Z,139.70
2018-04-13T08:50:07.070Z,129.53
2018-04-13T08:51:10.372Z,118.67
2018-04-13T08:52:13.678Z,116.77
2018-04-13T08:53:17.000Z,132.47
2018-04-13T08:54:20.327Z,128.73
2018-04-13T08:55:23.675Z,127.20
2018-04-13T08:56:26.959Z,129.50
2018-04-13T08:57:30.278Z,134.97
2018-04-13T08:58:33.622Z,113.03
2018-04-13T08:59:36.932Z,119.27
2018-04-13T09:00:40.299Z,119.13
2018-04-13T09:01:43.598Z,132.20
2018-04-13T09:02:46.911Z,122.27
2018-04-13T09:03:50.283Z,119.67
2018-04-13T09:04:53.605Z,139.33
2018-04-13T09:05:57.730Z,119.40
2018-04-13T09:07:01.086Z,119.87
2018-04-13T09:08:04.416Z,129.53
2018-04-13T09:09:07.772Z,111.13
2018-04-13T09:10:11.084Z,114.10
2018-04-13T09:11:14.387Z,123.77
2018-04-13T09:12:17.731Z,115.43
2018-04-13T09:13:21.904Z,130.20
2018-04-13T09:14:25.260Z,107.07
2018-04-13T09:15:29.458Z,104.87
2018-04-13T09:16:33.513Z,99.13
2018-04-13T09:17:36.846Z,102.20
2018-04-13T09:18:40.152Z,95.07
2018-04-13T09:19:43.469Z,91.93
2018-04-13T09:20:47.598Z,77.40
2018-04-13T09:21:50.892Z,80.13
2018-04-13T09:22:54.954Z,87.97
2018-04-13T09:23:59.033Z,73.50
2018-04-13T09:25:02.404Z,71.10
2018-04-13T09:26:05.718Z,67.87
2018-04-13T09:27:09.835Z,63.87
2018-04-13T09:28:13.940Z,61.00
2018-04-13T09:29:18.016Z,64.23
2018-04-13T09:30:22.514Z,62.80
2018-04-13T09:31:25.918Z,53.70
2018-04-13T09:32:29.258Z,57.10
2018-04-13T09:33:32.668Z,57.67
2018-04-13T09:34:35.995Z,54.60
2018-04-13T09:35:39.623Z,59.13
2018-04-13T09:36:43.138Z,55.90
2018-04-13T09:37:46.494Z,53.17
2018-04-13T09:38:49.820Z,55.03
2018-04-13T09:39:53.153Z,63.83
2018-04-13T09:40:56.496Z,57.73
2018-04-13T09:42:00.566Z,56.63
2018-04-13T09:43:03.886Z,44.63
2018-04-13T09:44:07.221Z,50.87
2018-04-13T09:45:10.512Z,45.33
2018-04-13T09:46:13.887Z,52.80
2018-04-13T09:47:17.199Z,40.33
2018-04-13T09:48:20.513Z,43.20
2018-04-13T09:49:23.877Z,45.77
2018-04-13T09:50:27.294Z,33.43
2018-04-13T09:51:30.796Z,39.23
2018-04-13T09:52:34.117Z,34.60
2018-04-13T09:53:37.426Z,42.80
2018-04-13T09:54:40.765Z,36.03
2018-04-13T09:55:44.091Z,38.33
2018-04-13T09:56:47.471Z,34.80
2018-04-13T09:57:50.768Z,38.13
2018-04-13T09:58:54.099Z,30.10
2018-04-13T09:59:57.429Z,28.67
2018-04-13T10:01:00.745Z,29.70
2018-04-13T10:02:04.117Z,37.63
2018-04-13T10:03:12.956Z,38.07
2018-04-13T10:04:16.271Z,35.27
2018-04-13T10:05:19.652Z,31.67
2018-04-13T10:06:22.970Z,37.47
2018-04-13T10:07:26.454Z,37.40
2018-04-13T10:08:29.765Z,39.40
2018-04-13T10:09:33.836Z,41.13
2018-04-13T10:10:37.281Z,40.40
2018-04-13T10:11:40.647Z,31.70
2018-04-13T10:12:44.798Z,41.03
2018-04-13T10:13:48.103Z,39.23
2018-04-13T10:14:52.093Z,35.83
2018-04-13T10:15:55.408Z,34.17
2018-04-13T10:16:58.728Z,38.20
2018-04-13T10:18:02.079Z,38.73
2018-04-13T10:19:05.396Z,40.60
2018-04-13T10:20:08.814Z,40.90
2018-04-13T10:21:12.128Z,42.93
2018-04-13T10:22:15.466Z,40.30
2018-04-13T10:23:18.873Z,44.33
2018-04-13T10:24:22.497Z,35.57
2018-04-13T10:25:26.010Z,31.47
2018-04-13T10:26:29.536Z,35.90
2018-04-13T10:27:33.148Z,38.93
2018-04-13T10:28:37.172Z,33.77
2018-04-13T10:29:40.557Z,48.57
2018-04-13T10:30:43.885Z,40.70
2018-04-13T10:31:47.208Z,42.63
2018-04-13T10:32:50.537Z,36.70
2018-04-13T10:33:53.838Z,40.13
2018-04-13T10:34:57.179Z,31.17
2018-04-13T10:36:01.259Z,31.60
2018-04-13T10:38:06.908Z,38.47
2018-04-13T10:39:10.238Z,34.47
2018-04-13T10:40:13.577Z,36.97
2018-04-13T10:41:16.964Z,38.97
2018-04-13T10:42:20.631Z,30.50
2018-04-13T10:43:23.994Z,46.33
2018-04-13T10:44:27.336Z,33.97
2018-04-13T10:45:30.869Z,30.77
2018-04-13T10:46:34.291Z,30.67
2018-04-13T10:47:37.644Z,37.67
2018-04-13T10:48:41.243Z,35.10
2018-04-13T10:49:44.616Z,32.03
2018-04-13T10:50:48.004Z,30.17
2018-04-13T10:51:52.137Z,32.37
2018-04-13T10:52:55.483Z,34.57
2018-04-13T10:53:58.936Z,32.80
2018-04-13T10:55:02.413Z,33.13
2018-04-13T10:56:05.738Z,31.53
2018-04-13T10:57:09.102Z,33.90
2018-04-13T10:58:12.540Z,37.10
2018-04-13T10:59:15.936Z,31.20
2018-04-13T11:00:19.286Z,27.70
2018-04-13T11:01:22.633Z,30.80
2018-04-13T11:02:25.927Z,34.27
2018-04-13T11:03:29.304Z,35.57
2018-04-13T11:04:32.710Z,39.20
2018-04-13T11:05:36.833Z,30.80
2018-04-13T11:06:40.154Z,37.20
2018-04-13T11:07:43.481Z,31.13
2018-04-13T11:08:46.882Z,29.83
2018-04-13T11:09:50.249Z,31.93
2018-04-13T11:10:54.543Z,29.70
2018-04-13T11:11:57.835Z,32.80
2018-04-13T11:13:01.148Z,31.00
2018-04-13T11:14:04.458Z,27.70
2018-04-13T11:15:07.823Z,25.50
2018-04-13T11:16:11.176Z,38.33
2018-04-13T11:17:14.492Z,28.63
2018-04-13T11:18:17.794Z,28.00
2018-04-13T11:19:21.180Z,28.47
2018-04-13T11:20:24.569Z,24.40
2018-04-13T11:21:27.926Z,27.40
2018-04-13T11:22:31.242Z,22.23
2018-04-13T11:23:34.541Z,21.43
2018-04-13T11:24:37.878Z,28.30
2018-04-13T11:25:41.210Z,22.30
2018-04-13T11:26:44.561Z,23.83
2018-04-13T11:27:47.906Z,24.43
2018-04-13T11:28:51.221Z,23.87
2018-04-13T11:29:54.543Z,29.17
2018-04-13T11:30:57.929Z,19.57
2018-04-13T11:32:01.263Z,18.40
2018-04-13T11:33:05.353Z,23.33
2018-04-13T11:34:08.654Z,14.20
2018-04-13T11:35:11.960Z,14.17
2018-04-13T11:36:15.269Z,20.23
2018-04-13T11:38:37.385Z,17.40
2018-04-13T11:39:40.728Z,17.70
2018-04-13T11:40:45.101Z,14.67
2018-04-13T11:41:48.531Z,24.30
2018-04-13T11:42:51.899Z,19.83
2018-04-13T11:43:55.276Z,14.97
2018-04-13T11:44:58.582Z,12.43
2018-04-13T11:46:02.693Z,18.27
2018-04-13T11:47:06.778Z,16.73
2018-04-13T11:48:10.855Z,17.40
2018-04-13T11:50:27.260Z,13.40
2018-04-13T11:51:30.577Z,14.77
2018-04-13T11:52:33.900Z,13.63
2018-04-13T11:53:37.211Z,20.00
2018-04-13T11:54:40.550Z,15.40
2018-04-13T11:55:43.883Z,17.27
2018-04-13T11:56:47.203Z,16.20
2018-04-13T11:57:50.519Z,18.20
2018-04-13T11:58:53.859Z,14.00
2018-04-13T11:59:57.165Z,12.57
2018-04-13T12:01:00.512Z,16.50
2018-04-13T12:02:04.641Z,13.03
2018-04-13T12:03:09.507Z,16.40
2018-04-13T12:04:12.811Z,17.90
2018-04-13T12:05:16.136Z,24.80
2018-04-13T12:06:20.240Z,13.93
2018-04-13T12:07:23.539Z,14.40
2018-04-13T12:08:26.871Z,15.97
2018-04-13T12:09:30.217Z,14.47
2018-04-13T12:10:33.586Z,16.33
2018-04-13T12:11:36.944Z,17.70
2018-04-13T12:12:40.272Z,15.43
2018-04-13T12:13:43.764Z,11.90
2018-04-13T12:14:47.108Z,17.63
2018-04-13T12:15:51.243Z,13.47
2018-04-13T12:16:54.603Z,12.77
2018-04-13T12:17:57.933Z,12.23
2018-04-13T12:19:01.995Z,13.23
2018-04-13T12:20:06.080Z,16.03
2018-04-13T12:21:09.543Z,12.03
2018-04-13T12:22:12.909Z,17.13
2018-04-13T12:23:16.219Z,14.20
2018-04-13T12:24:19.665Z,16.63
2018-04-13T12:26:41.898Z,15.50
2018-04-13T12:27:45.236Z,15.53
2018-04-13T12:28:48.687Z,15.93
2018-04-13T12:29:52.004Z,12.23
2018-04-13T12:30:55.332Z,12.73
2018-04-13T12:31:58.749Z,11.63
2018-04-13T12:33:02.117Z,12.30
2018-04-13T12:34:05.512Z,11.80
2018-04-13T12:35:08.903Z,12.93
2018-04-13T12:36:12.219Z,13.30
2018-04-13T12:37:16.387Z,15.30
2018-04-13T12:38:20.244Z,12.80
2018-04-13T12:39:23.563Z,15.33
2018-04-13T12:40:26.859Z,9.87
2018-04-13T12:41:30.166Z,11.53
2018-04-13T12:42:33.514Z,13.33
2018-04-13T12:43:36.924Z,15.10
2018-04-13T12:44:40.265Z,13.30
2018-04-13T12:45:44.372Z,11.60
2018-04-13T12:46:47.773Z,11.10
2018-04-13T12:47:51.084Z,12.87
2018-04-13T12:48:54.497Z,9.80
2018-04-13T12:49:58.008Z,10.53
2018-04-13T12:51:01.333Z,7.00
2018-04-13T12:52:04.662Z,7.13
2018-04-13T12:53:08.822Z,6.40
2018-04-13T12:54:12.207Z,9.40
2018-04-13T12:55:15.580Z,8.97
2018-04-13T12:56:18.829Z,9.90
2018-04-13T12:57:22.196Z,9.30
2018-04-13T12:58:25.523Z,16.20
2018-04-13T12:59:28.903Z,8.97
2018-04-13T13:00:32.176Z,7.80
2018-04-13T13:01:35.519Z,6.80
2018-04-13T13:02:38.885Z,7.77
2018-04-13T13:03:42.187Z,10.70
2018-04-13T13:04:45.509Z,7.27
2018-04-13T13:05:49.582Z,11.20
2018-04-13T13:06:52.889Z,7.00
2018-04-13T13:07:56.208Z,8.30
2018-04-13T13:08:59.508Z,7.43
2018-04-13T13:10:02.941Z,8.57
2018-04-13T13:11:07.017Z,8.40
2018-04-13T13:12:10.335Z,9.53
2018-04-13T13:13:13.636Z,7.23
2018-04-13T13:14:16.958Z,8.63
2018-04-13T13:15:20.397Z,9.87
2018-04-13T13:16:25.220Z,11.80
2018-04-13T13:17:37.302Z,6.50
2018-04-13T13:18:41.030Z,7.30
2018-04-13T13:19:44.375Z,4.57
2018-04-13T13:20:48.513Z,4.80
2018-04-13T13:21:51.865Z,3.90
2018-04-13T13:22:55.977Z,5.63
2018-04-13T13:23:59.306Z,8.07
2018-04-13T13:25:02.615Z,8.40
2018-04-13T13:26:05.948Z,4.30
2018-04-13T13:27:09.304Z,4.57
2018-04-13T13:28:13.411Z,5.53
2018-04-13T13:29:16.726Z,4.07
2018-04-13T13:30:20.045Z,8.17
2018-04-13T13:31:23.392Z,7.03
2018-04-13T13:32:26.713Z,4.80
2018-04-13T13:33:30.035Z,4.40
2018-04-13T13:34:33.506Z,6.70
2018-04-13T13:35:36.883Z,4.77
2018-04-13T13:36:40.221Z,4.73
2018-04-13T13:37:43.557Z,6.30
2018-04-13T13:38:46.925Z,3.37
2018-04-13T13:39:50.263Z,7.23
2018-04-13T13:40:53.716Z,4.07
2018-04-13T13:41:57.147Z,6.10
2018-04-13T13:43:00.521Z,6.00
2018-04-13T13:44:03.908Z,8.93
2018-04-13T13:45:07.278Z,7.00
2018-04-13T13:46:10.673Z,5.30